createdAt,value
2022-07-31T00:02:28.742Z,11.13
2022-07-31T00:05:15.750Z,10.00
2022-07-31T00:08:03.563Z,12.23
2022-07-31T00:10:50.854Z,11.13
2022-07-31T00:13:56.614Z,10.70
2022-07-31T00:16:45.531Z,14.33
2022-07-31T00:19:32.706Z,14.10
2022-07-31T00:22:19.733Z,13.10
2022-07-31T00:25:07.358Z,11.90
2022-07-31T00:27:54.366Z,13.13
2022-07-31T00:30:41.326Z,13.33
2022-07-31T00:33:28.358Z,14.77
2022-07-31T00:36:15.381Z,11.87
2022-07-31T00:39:02.597Z,11.07
2022-07-31T00:41:50.203Z,11.73
2022-07-31T00:44:37.278Z,14.37
2022-07-31T00:47:25.810Z,13.97
2022-07-31T00:50:13.350Z,13.40
2022-07-31T00:53:00.468Z,16.13
2022-07-31T00:55:51.251Z,13.77
2022-07-31T00:58:39.250Z,16.33
2022-07-31T01:01:26.619Z,16.97
2022-07-31T01:04:15.713Z,15.80
2022-07-31T01:07:03.638Z,15.60
2022-07-31T01:09:53.883Z,13.83
2022-07-31T01:12:54.240Z,13.13
2022-07-31T01:15:43.666Z,13.47
2022-07-31T01:18:33.143Z,15.13
2022-07-31T01:21:29.271Z,13.70
2022-07-31T01:24:52.950Z,17.27
2022-07-31T01:28:01.888Z,15.80
2022-07-31T01:31:24.195Z,15.43
2022-07-31T01:34:13.510Z,14.57
2022-07-31T01:37:17.666Z,17.33
2022-07-31T01:40:10.336Z,13.20
2022-07-31T01:43:03.287Z,16.03
2022-07-31T01:45:57.058Z,13.90
2022-07-31T01:48:46.492Z,17.13
2022-07-31T01:51:34.931Z,14.53
2022-07-31T01:54:22.983Z,16.77
2022-07-31T01:57:11.677Z,16.17
2022-07-31T02:00:33.877Z,17.30
2022-07-31T02:03:17.244Z,17.37
2022-07-31T02:06:04.854Z,16.67
2022-07-31T02:08:55.146Z,18.57
2022-07-31T02:11:53.226Z,17.40
2022-07-31T02:14:42.672Z,15.10
2022-07-31T02:17:29.749Z,17.10
2022-07-31T02:20:16.893Z,19.10
2022-07-31T02:23:03.963Z,22.17
2022-07-31T02:25:51.001Z,17.90
2022-07-31T02:28:42.050Z,17.93
2022-07-31T02:31:32.958Z,16.83
2022-07-31T02:34:20.146Z,16.67
2022-07-31T02:37:15.438Z,14.90
2022-07-31T02:40:03.884Z,17.30
2022-07-31T02:42:52.098Z,18.43
2022-07-31T02:45:39.501Z,16.90
2022-07-31T02:48:27.221Z,16.10
2022-07-31T02:51:14.674Z,16.70
2022-07-31T02:54:02.293Z,17.73
2022-07-31T02:56:49.663Z,16.07
2022-07-31T02:59:38.134Z,16.10
2022-07-31T03:02:37.792Z,16.50
2022-07-31T03:05:25.169Z,16.57
2022-07-31T03:08:12.160Z,15.83
2022-07-31T03:10:59.237Z,17.17
2022-07-31T03:13:47.694Z,17.57
2022-07-31T03:16:35.973Z,15.73
2022-07-31T03:19:24.246Z,15.47
2022-07-31T03:22:15.303Z,17.80
2022-07-31T03:25:03.993Z,16.73
2022-07-31T03:27:55.474Z,17.37
2022-07-31T03:30:43.588Z,16.10
2022-07-31T03:33:30.682Z,17.70
2022-07-31T03:36:17.858Z,17.30
2022-07-31T03:39:05.329Z,19.30
2022-07-31T03:41:55.070Z,16.67
2022-07-31T03:44:43.696Z,16.53
2022-07-31T03:47:30.896Z,17.07
2022-07-31T03:50:18.502Z,20.43
2022-07-31T03:53:06.481Z,15.60
2022-07-31T03:55:58.737Z,17.37
2022-07-31T03:58:51.553Z,19.97
2022-07-31T04:01:56.782Z,18.30
2022-07-31T04:04:45.998Z,18.13
2022-07-31T04:07:33.149Z,18.37
2022-07-31T04:10:20.179Z,17.87
2022-07-31T04:13:07.206Z,17.53
2022-07-31T04:15:54.251Z,16.83
2022-07-31T04:18:41.298Z,22.50
2022-07-31T04:21:28.337Z,22.73
2022-07-31T04:24:17.827Z,26.03
2022-07-31T04:27:09.419Z,26.20
2022-07-31T04:29:59.384Z,24.17
2022-07-31T04:32:46.369Z,25.10
2022-07-31T04:35:33.473Z,23.63
2022-07-31T04:38:21.760Z,26.67
2022-07-31T04:41:08.987Z,28.97
2022-07-31T04:43:57.887Z,22.40
2022-07-31T04:46:44.999Z,26.10
2022-07-31T04:49:33.135Z,24.87
2022-07-31T04:52:20.198Z,21.57
2022-07-31T04:55:07.523Z,25.53
2022-07-31T04:57:54.566Z,23.27
2022-07-31T05:00:41.522Z,25.83
2022-07-31T05:03:28.615Z,23.47
2022-07-31T05:06:15.606Z,23.23
2022-07-31T05:09:08.581Z,22.53
2022-07-31T05:11:56.948Z,25.17
2022-07-31T05:14:44.011Z,24.17
2022-07-31T05:17:30.982Z,25.30
2022-07-31T05:20:17.996Z,21.97
2022-07-31T05:23:06.516Z,25.23
2022-07-31T05:25:53.785Z,25.83
2022-07-31T05:28:41.014Z,20.37
2022-07-31T05:31:29.918Z,17.73
2022-07-31T05:34:16.978Z,22.97
2022-07-31T05:37:04.153Z,19.03
2022-07-31T05:39:51.172Z,21.13
2022-07-31T05:42:38.119Z,20.57
2022-07-31T05:45:25.198Z,16.77
2022-07-31T05:48:12.135Z,18.23
2022-07-31T05:51:04.938Z,16.87
2022-07-31T05:53:52.557Z,15.40
2022-07-31T05:56:39.571Z,15.67
2022-07-31T05:59:26.532Z,16.90
2022-07-31T06:02:13.539Z,17.37
2022-07-31T06:05:00.697Z,17.30
2022-07-31T06:07:51.073Z,16.47
2022-07-31T06:10:38.877Z,16.73
2022-07-31T06:13:27.577Z,14.70
2022-07-31T06:16:15.574Z,15.30
2022-07-31T06:19:02.610Z,16.30
2022-07-31T06:21:49.621Z,13.77
2022-07-31T06:24:42.647Z,14.27
2022-07-31T06:27:33.218Z,13.10
2022-07-31T06:30:21.357Z,13.87
2022-07-31T06:33:08.747Z,11.37
2022-07-31T06:36:03.823Z,12.07
2022-07-31T06:38:50.835Z,13.20
2022-07-31T06:41:47.612Z,10.80
2022-07-31T06:44:35.188Z,11.93
2022-07-31T06:47:32.949Z,9.57
2022-07-31T06:50:20.041Z,15.43
2022-07-31T06:53:07.046Z,8.73
2022-07-31T06:55:54.014Z,11.37
2022-07-31T06:58:41.117Z,8.73
2022-07-31T07:01:28.561Z,10.97
2022-07-31T07:04:15.603Z,10.07
2022-07-31T07:07:02.625Z,7.97
2022-07-31T07:09:49.725Z,7.67
2022-07-31T07:12:36.797Z,6.50
2022-07-31T07:15:23.769Z,5.80
2022-07-31T07:18:10.753Z,6.77
2022-07-31T07:20:58.097Z,11.37
2022-07-31T07:23:45.305Z,7.17
2022-07-31T07:26:32.381Z,7.10
2022-07-31T07:29:19.516Z,7.30
2022-07-31T07:32:06.840Z,5.77
2022-07-31T07:35:00.279Z,4.88
2022-07-31T07:37:48.526Z,6.43
2022-07-31T07:40:35.826Z,5.43
2022-07-31T07:43:22.886Z,7.22
2022-07-31T07:46:10.024Z,7.82
2022-07-31T07:48:57.309Z,7.90
2022-07-31T07:51:59.363Z,6.13
2022-07-31T07:54:47.522Z,5.45
2022-07-31T07:57:36.483Z,5.03
2022-07-31T08:00:23.778Z,4.28
2022-07-31T08:03:49.537Z,5.82
2022-07-31T08:06:21.692Z,6.03
2022-07-31T08:09:08.826Z,6.45
2022-07-31T08:11:56.260Z,3.95
2022-07-31T08:14:43.301Z,5.63
2022-07-31T08:17:30.463Z,4.93
2022-07-31T08:20:17.533Z,4.20
2022-07-31T08:23:04.682Z,6.50
2022-07-31T08:25:51.788Z,7.25
2022-07-31T08:28:39.125Z,4.88
2022-07-31T08:31:26.166Z,4.68
2022-07-31T08:34:31.331Z,5.05
2022-07-31T08:37:59.333Z,5.07
2022-07-31T08:40:31.395Z,4.82
2022-07-31T08:46:28.881Z,4.68
2022-07-31T08:49:18.135Z,4.80
2022-07-31T08:52:06.491Z,3.40
2022-07-31T08:54:54.878Z,5.10
2022-07-31T08:57:42.450Z,5.13
2022-07-31T09:00:29.611Z,3.53
2022-07-31T09:03:17.908Z,5.03
2022-07-31T09:06:06.349Z,5.75
2022-07-31T09:08:56.284Z,6.25
2022-07-31T09:11:48.571Z,5.05
2022-07-31T09:14:36.025Z,3.53
2022-07-31T09:17:31.967Z,4.38
2022-07-31T09:20:28.039Z,4.70
2022-07-31T09:23:15.102Z,4.15
2022-07-31T09:26:05.573Z,6.57
2022-07-31T09:28:53.426Z,3.85
2022-07-31T09:31:40.482Z,3.88
2022-07-31T09:34:28.748Z,4.13
2022-07-31T09:37:20.807Z,2.67
2022-07-31T09:40:09.582Z,3.72
2022-07-31T09:42:56.771Z,4.43
2022-07-31T09:45:49.338Z,5.95
2022-07-31T09:48:37.531Z,4.30
2022-07-31T09:51:24.663Z,3.30
2022-07-31T09:54:23.305Z,3.78
2022-07-31T09:57:15.256Z,6.38
2022-07-31T10:00:03.148Z,2.47
2022-07-31T10:02:52.896Z,4.20
2022-07-31T10:05:42.451Z,4.30
2022-07-31T10:08:32.760Z,3.20
2022-07-31T10:11:20.224Z,5.32
2022-07-31T10:14:13.371Z,3.58
2022-07-31T10:17:05.078Z,5.25
2022-07-31T10:19:57.998Z,3.03
2022-07-31T10:22:53.515Z,4.00
2022-07-31T10:25:53.772Z,4.65
2022-07-31T10:28:41.790Z,4.20
2022-07-31T10:31:31.150Z,3.78
2022-07-31T10:34:19.134Z,6.88
2022-07-31T10:37:24.994Z,2.95
2022-07-31T10:40:40.160Z,3.35
2022-07-31T10:43:30.561Z,5.28
2022-07-31T10:46:32.078Z,3.92
2022-07-31T10:49:19.496Z,2.75
2022-07-31T10:52:07.066Z,4.10
2022-07-31T10:54:58.389Z,4.68
2022-07-31T10:57:56.453Z,3.38
2022-07-31T11:00:45.609Z,4.50
2022-07-31T11:03:41.900Z,3.47
2022-07-31T11:06:42.189Z,4.00
2022-07-31T11:09:29.988Z,3.83
2022-07-31T11:12:18.706Z,2.85
2022-07-31T11:15:24.448Z,3.63
2022-07-31T11:18:24.878Z,8.07
2022-07-31T11:21:36.329Z,7.35
2022-07-31T11:24:23.603Z,5.88
2022-07-31T11:27:10.697Z,3.50
2022-07-31T11:30:09.088Z,3.58
2022-07-31T11:32:59.790Z,4.57
2022-07-31T11:35:46.923Z,4.15
2022-07-31T11:38:34.446Z,4.38
2022-07-31T11:41:28.532Z,5.30
2022-07-31T11:44:21.946Z,3.53
2022-07-31T11:48:09.676Z,2.70
2022-07-31T11:50:16.148Z,2.80
2022-07-31T11:53:04.731Z,3.67
2022-07-31T11:55:54.470Z,3.65
2022-07-31T11:58:47.710Z,4.00
2022-07-31T12:01:34.853Z,3.67
2022-07-31T12:04:21.885Z,2.58
2022-07-31T12:07:10.134Z,3.28
2022-07-31T12:10:00.640Z,3.33
2022-07-31T12:12:50.561Z,2.30
2022-07-31T12:15:37.913Z,5.07
2022-07-31T12:18:26.749Z,5.38
2022-07-31T12:21:14.331Z,3.88
2022-07-31T12:24:02.305Z,3.55
2022-07-31T12:26:51.445Z,3.03
2022-07-31T12:29:40.964Z,5.28
2022-07-31T12:32:28.674Z,5.28
2022-07-31T12:35:15.838Z,3.45
2022-07-31T12:38:18.588Z,3.45
2022-07-31T12:41:10.823Z,3.97
2022-07-31T12:44:13.323Z,4.72
2022-07-31T12:47:01.699Z,3.75
2022-07-31T12:49:49.062Z,5.25
2022-07-31T12:52:37.601Z,7.47
2022-07-31T12:55:24.902Z,3.95
2022-07-31T12:58:12.088Z,3.33
2022-07-31T13:00:59.151Z,4.72
2022-07-31T13:03:47.307Z,3.40
2022-07-31T13:06:34.455Z,4.00
2022-07-31T13:09:21.605Z,5.28
2022-07-31T13:12:09.798Z,3.88
2022-07-31T13:14:56.814Z,5.32
2022-07-31T13:17:48.074Z,4.38
2022-07-31T13:20:37.999Z,4.43
2022-07-31T13:23:25.014Z,4.43
2022-07-31T13:26:12.143Z,5.13
2022-07-31T13:28:59.341Z,6.40
2022-07-31T13:31:46.773Z,4.80
2022-07-31T13:34:34.238Z,4.65
2022-07-31T13:37:21.375Z,6.32
2022-07-31T13:40:09.059Z,5.63
2022-07-31T13:42:57.587Z,5.93
2022-07-31T13:45:44.635Z,5.20
2022-07-31T13:48:33.477Z,3.75
2022-07-31T13:51:23.956Z,5.15
2022-07-31T13:54:16.614Z,4.35
2022-07-31T13:57:05.997Z,3.40
2022-07-31T13:59:53.123Z,3.38
2022-07-31T14:02:41.367Z,3.78
2022-07-31T14:05:28.813Z,3.67
2022-07-31T14:08:29.951Z,3.13
2022-07-31T14:11:17.860Z,2.63
2022-07-31T14:14:04.980Z,3.65
2022-07-31T14:16:53.125Z,3.67
2022-07-31T14:19:43.949Z,3.97
2022-07-31T14:22:31.651Z,3.72
2022-07-31T14:25:18.805Z,3.70
2022-07-31T14:28:08.251Z,4.95
2022-07-31T14:30:55.357Z,2.72
2022-07-31T14:33:42.413Z,5.65
2022-07-31T14:36:29.454Z,6.13
2022-07-31T14:39:16.551Z,4.97
2022-07-31T14:42:04.074Z,3.90
2022-07-31T14:44:51.346Z,3.85
2022-07-31T14:47:38.536Z,3.78
2022-07-31T14:50:25.610Z,3.88
2022-07-31T14:53:12.944Z,3.95
2022-07-31T14:56:03.466Z,2.20
2022-07-31T14:58:57.507Z,3.55
2022-07-31T15:01:45.882Z,2.33
2022-07-31T15:04:33.504Z,3.53
2022-07-31T15:07:39.706Z,3.55
2022-07-31T15:10:28.214Z,6.20
2022-07-31T15:13:17.248Z,4.18
2022-07-31T15:16:05.056Z,6.03
2022-07-31T15:18:53.972Z,8.00
2022-07-31T15:22:16.018Z,8.57
2022-07-31T15:24:53.438Z,6.33
2022-07-31T15:27:40.594Z,7.23
2022-07-31T15:30:27.739Z,9.20
2022-07-31T15:33:14.751Z,8.63
2022-07-31T15:36:02.535Z,7.07
2022-07-31T15:38:49.658Z,9.50
2022-07-31T15:41:36.885Z,8.93
2022-07-31T15:44:24.906Z,8.90
2022-07-31T15:47:13.253Z,8.90
2022-07-31T15:50:00.778Z,7.83
2022-07-31T15:52:50.720Z,9.83
2022-07-31T15:55:37.995Z,10.73
2022-07-31T15:58:25.286Z,12.53
2022-07-31T16:01:15.953Z,9.37
2022-07-31T16:04:03.631Z,9.50
2022-07-31T16:08:29.416Z,8.37
2022-07-31T16:10:17.867Z,8.93
2022-07-31T16:13:05.445Z,9.00
2022-07-31T16:15:53.185Z,9.77
2022-07-31T16:18:40.604Z,9.83
2022-07-31T16:21:27.964Z,9.63
2022-07-31T16:24:15.428Z,8.50
2022-07-31T16:27:07.950Z,10.00
2022-07-31T16:29:59.703Z,9.30
2022-07-31T16:32:50.049Z,9.70
2022-07-31T16:35:37.478Z,8.93
2022-07-31T16:38:25.003Z,8.13
2022-07-31T16:41:12.425Z,8.63
2022-07-31T16:43:59.818Z,9.93
2022-07-31T16:46:49.236Z,9.30
2022-07-31T16:49:42.218Z,9.37
2022-07-31T16:52:50.104Z,8.97
2022-07-31T16:55:55.817Z,9.70
2022-07-31T16:58:51.405Z,9.27
2022-07-31T17:01:57.305Z,10.53
2022-07-31T17:04:51.194Z,9.83
2022-07-31T17:07:40.915Z,9.07
2022-07-31T17:10:28.575Z,9.77
2022-07-31T17:13:16.518Z,8.03
2022-07-31T17:16:03.985Z,10.63
2022-07-31T17:18:54.481Z,8.13
2022-07-31T17:21:44.603Z,9.67
2022-07-31T17:24:32.300Z,8.43
2022-07-31T17:27:20.611Z,10.20
2022-07-31T17:30:08.552Z,7.93
2022-07-31T17:32:55.999Z,8.00
2022-07-31T17:35:43.357Z,8.00
2022-07-31T17:38:30.789Z,7.60
2022-07-31T17:41:24.692Z,9.93
2022-07-31T17:44:14.358Z,7.53
2022-07-31T17:47:03.735Z,7.33
2022-07-31T17:49:53.066Z,7.07
2022-07-31T17:52:40.317Z,6.80
2022-07-31T17:55:28.008Z,6.87
2022-07-31T17:58:16.162Z,10.63
2022-07-31T18:01:03.850Z,7.60
2022-07-31T18:03:51.585Z,7.57
2022-07-31T18:06:39.613Z,7.53
2022-07-31T18:09:28.357Z,8.33
2022-07-31T18:12:16.286Z,8.20
2022-07-31T18:15:05.817Z,7.37
2022-07-31T18:17:54.503Z,8.53
2022-07-31T18:20:45.395Z,8.07
2022-07-31T18:23:33.403Z,9.10
2022-07-31T18:26:21.146Z,8.73
2022-07-31T18:29:08.440Z,9.47
2022-07-31T18:31:56.180Z,10.47
2022-07-31T18:34:44.070Z,10.13
2022-07-31T18:37:32.638Z,9.33
2022-07-31T18:40:19.837Z,10.17
2022-07-31T18:43:07.417Z,13.43
2022-07-31T18:45:54.676Z,11.73
2022-07-31T18:48:42.442Z,12.60
2022-07-31T18:51:31.809Z,16.17
2022-07-31T18:54:22.031Z,11.27
2022-07-31T18:57:12.135Z,15.33
2022-07-31T18:59:59.424Z,12.77
2022-07-31T19:02:46.623Z,10.40
2022-07-31T19:05:34.704Z,13.07
2022-07-31T19:08:22.145Z,14.80
2022-07-31T19:11:09.304Z,14.47
2022-07-31T19:13:56.521Z,14.90
2022-07-31T19:16:44.395Z,16.07
2022-07-31T19:19:34.668Z,15.00
2022-07-31T19:22:39.757Z,14.80
2022-07-31T19:25:26.913Z,14.63
2022-07-31T19:28:15.143Z,14.27
2022-07-31T19:31:02.612Z,14.90
2022-07-31T19:33:50.198Z,16.43
2022-07-31T19:36:37.796Z,16.83
2022-07-31T19:39:25.427Z,16.40
2022-07-31T19:42:12.701Z,16.17
2022-07-31T19:44:59.935Z,15.47
2022-07-31T19:47:47.283Z,16.87
2022-07-31T19:50:34.495Z,15.03
2022-07-31T19:53:21.710Z,15.47
2022-07-31T19:56:10.674Z,14.70
2022-07-31T19:58:57.851Z,15.13
2022-07-31T20:01:45.036Z,15.03
2022-07-31T20:04:32.221Z,14.20
2022-07-31T20:07:19.402Z,14.80
2022-07-31T20:10:09.821Z,14.50
2022-07-31T20:12:56.969Z,11.90
2022-07-31T20:15:52.429Z,10.23
2022-07-31T20:18:40.239Z,10.43
2022-07-31T20:21:27.679Z,9.93
2022-07-31T20:24:22.249Z,9.57
2022-07-31T20:27:09.414Z,10.20
2022-07-31T20:29:56.587Z,9.67
2022-07-31T20:32:48.328Z,10.47
2022-07-31T20:35:48.784Z,12.23
2022-07-31T20:38:37.413Z,9.50
2022-07-31T20:41:24.932Z,9.10
2022-07-31T20:44:11.980Z,10.40
2022-07-31T20:46:58.945Z,9.60
2022-07-31T20:49:45.977Z,10.23
2022-07-31T20:52:33.399Z,11.37
2022-07-31T20:55:20.441Z,9.03
2022-07-31T20:58:07.462Z,9.87
2022-07-31T21:00:54.630Z,11.50
2022-07-31T21:03:41.790Z,10.10
2022-07-31T21:06:28.750Z,14.27
2022-07-31T21:09:15.804Z,11.37
2022-07-31T21:12:03.269Z,9.87
2022-07-31T21:14:50.499Z,12.00
2022-07-31T21:17:37.488Z,9.83
2022-07-31T21:20:36.233Z,8.70
2022-07-31T21:23:33.247Z,9.90
2022-07-31T21:26:21.774Z,10.67
2022-07-31T21:29:10.261Z,11.37
2022-07-31T21:31:57.732Z,12.03
2022-07-31T21:34:45.035Z,9.60
2022-07-31T21:37:39.062Z,8.90
2022-07-31T21:40:27.488Z,8.00
2022-07-31T21:43:22.289Z,9.40
2022-07-31T21:46:15.396Z,8.93
2022-07-31T21:49:05.009Z,10.50
2022-07-31T21:51:53.087Z,9.33
2022-07-31T21:54:40.469Z,9.57
2022-07-31T21:57:27.636Z,7.63
2022-07-31T22:00:35.258Z,9.43
2022-07-31T22:03:22.716Z,10.90
2022-07-31T22:06:32.776Z,7.77
2022-07-31T22:09:24.613Z,12.87
2022-07-31T22:12:11.937Z,8.93
2022-07-31T22:14:59.102Z,9.07
2022-07-31T22:17:46.950Z,9.20
2022-07-31T22:20:34.395Z,10.20
2022-07-31T22:23:21.611Z,8.50
2022-07-31T22:26:08.826Z,9.23
2022-07-31T22:28:56.635Z,8.80
2022-07-31T22:31:49.909Z,10.83
2022-07-31T22:34:41.279Z,9.03
2022-07-31T22:37:28.690Z,9.43
2022-07-31T22:40:17.802Z,10.40
2022-07-31T22:43:47.292Z,11.53
2022-07-31T22:46:14.771Z,11.50
2022-07-31T22:49:02.968Z,10.40
2022-07-31T22:51:50.936Z,11.60
2022-07-31T22:54:41.903Z,9.57
2022-07-31T22:57:29.211Z,12.03
2022-07-31T23:00:18.302Z,10.63
2022-07-31T23:03:05.415Z,12.13
2022-07-31T23:06:02.814Z,11.43
2022-07-31T23:09:00.496Z,11.23
2022-07-31T23:11:47.580Z,11.17
2022-07-31T23:14:34.526Z,12.07
2022-07-31T23:17:22.511Z,10.70
2022-07-31T23:20:10.913Z,13.10
2022-07-31T23:22:57.931Z,12.33
2022-07-31T23:25:44.922Z,10.20
2022-07-31T23:28:31.931Z,12.07
2022-07-31T23:31:19.586Z,11.33
2022-07-31T23:34:06.633Z,11.37
2022-07-31T23:36:54.744Z,13.27
2022-07-31T23:39:41.915Z,10.57
2022-07-31T23:42:38.063Z,10.60
2022-07-31T23:45:25.127Z,11.07
2022-07-31T23:48:14.895Z,13.47
2022-07-31T23:51:02.162Z,11.17
2022-07-31T23:53:49.186Z,10.07
2022-07-31T23:56:36.244Z,9.10
2022-07-31T23:59:23.206Z,8.57
